createdAt,value
2023-09-26T00:00:20.841Z,78.74
2023-09-26T00:02:47.967Z,78.60
2023-09-26T00:05:14.982Z,78.87
2023-09-26T00:07:43.790Z,78.09
2023-09-26T00:10:14.504Z,78.11
2023-09-26T00:12:41.718Z,78.21
2023-09-26T00:15:09.480Z,78.28
2023-09-26T00:17:36.561Z,80.23
2023-09-26T00:20:22.946Z,79.78
2023-09-26T00:22:51.222Z,79.26
2023-09-26T00:25:18.125Z,77.72
2023-09-26T00:27:45.342Z,78.27
2023-09-26T00:30:13.608Z,78.42
2023-09-26T00:32:40.890Z,80.77
2023-09-26T00:35:14.659Z,78.44
2023-09-26T00:37:42.441Z,78.49
2023-09-26T00:40:13.822Z,78.35
2023-09-26T00:42:40.911Z,78.65
2023-09-26T00:45:08.660Z,78.34
2023-09-26T00:47:36.637Z,82.76
2023-09-26T00:50:04.611Z,79.83
2023-09-26T00:52:31.901Z,78.77
2023-09-26T00:55:00.430Z,77.56
2023-09-26T00:57:28.939Z,77.14
2023-09-26T00:59:55.797Z,77.07
2023-09-26T01:02:23.302Z,77.31
2023-09-26T01:04:50.714Z,77.61
2023-09-26T01:07:17.608Z,79.83
2023-09-26T01:09:44.589Z,78.14
2023-09-26T01:12:12.362Z,77.66
2023-09-26T01:14:40.630Z,77.60
2023-09-26T01:17:07.788Z,76.69
2023-09-26T01:19:34.891Z,76.87
2023-09-26T01:22:01.966Z,77.27
2023-09-26T01:24:30.740Z,77.16
2023-09-26T01:26:58.013Z,77.49
2023-09-26T01:29:25.460Z,77.33
2023-09-26T01:31:52.558Z,76.92
2023-09-26T01:34:19.581Z,77.51
2023-09-26T01:36:46.513Z,78.00
2023-09-26T01:39:14.019Z,77.77
2023-09-26T01:41:42.373Z,78.67
2023-09-26T01:44:10.054Z,79.24
2023-09-26T01:46:37.132Z,79.26
2023-09-26T01:49:04.126Z,79.11
2023-09-26T01:51:31.017Z,79.04
2023-09-26T01:53:57.841Z,79.68
2023-09-26T01:56:25.651Z,79.24
2023-09-26T01:58:54.201Z,79.26
2023-09-26T02:01:21.365Z,79.02
2023-09-26T02:03:48.627Z,78.78
2023-09-26T02:06:15.607Z,78.83
2023-09-26T02:08:42.521Z,78.62
2023-09-26T02:11:09.457Z,80.03
2023-09-26T02:13:36.789Z,81.35
2023-09-26T02:16:11.174Z,78.40
2023-09-26T02:18:38.160Z,78.01
2023-09-26T02:21:05.214Z,78.15
2023-09-26T02:23:33.891Z,77.81
2023-09-26T02:26:00.785Z,77.85
2023-09-26T02:28:27.670Z,79.58
2023-09-26T02:30:54.828Z,79.33
2023-09-26T02:33:23.200Z,79.12
2023-09-26T02:35:50.329Z,78.69
2023-09-26T02:38:17.218Z,78.25
2023-09-26T02:40:44.754Z,78.39
2023-09-26T02:43:11.605Z,78.02
2023-09-26T02:45:38.637Z,77.98
2023-09-26T02:48:06.987Z,79.85
2023-09-26T02:50:35.250Z,79.62
2023-09-26T02:53:02.126Z,79.61
2023-09-26T02:55:29.127Z,80.06
2023-09-26T02:57:56.145Z,80.05
2023-09-26T03:00:23.140Z,80.43
2023-09-26T03:02:50.266Z,79.82
2023-09-26T03:05:18.196Z,78.73
2023-09-26T03:07:46.879Z,77.61
2023-09-26T03:10:15.431Z,78.32
2023-09-26T03:12:45.039Z,78.15
2023-09-26T03:15:12.490Z,79.81
2023-09-26T03:17:39.444Z,80.11
2023-09-26T03:20:09.926Z,79.17
2023-09-26T03:22:37.118Z,79.24
2023-09-26T03:25:07.073Z,78.30
2023-09-26T03:27:34.303Z,78.65
2023-09-26T03:30:01.319Z,78.26
2023-09-26T03:32:28.730Z,78.52
2023-09-26T03:34:55.799Z,78.96
2023-09-26T03:37:23.297Z,80.27
2023-09-26T03:39:50.376Z,79.62
2023-09-26T03:42:18.864Z,80.75
2023-09-26T03:44:45.729Z,79.52
2023-09-26T03:47:13.022Z,79.54
2023-09-26T03:49:39.854Z,79.53
2023-09-26T03:52:06.885Z,79.66
2023-09-26T03:54:35.444Z,80.19
2023-09-26T03:57:02.700Z,80.26
2023-09-26T03:59:30.985Z,80.42
2023-09-26T04:01:57.993Z,79.89
2023-09-26T04:04:25.117Z,79.71
2023-09-26T04:06:52.146Z,79.79
2023-09-26T04:09:19.156Z,79.93
2023-09-26T04:11:46.028Z,80.35
2023-09-26T04:14:13.136Z,80.49
2023-09-26T04:16:41.397Z,81.10
2023-09-26T04:19:10.092Z,84.32
2023-09-26T04:21:37.253Z,82.16
2023-09-26T04:24:05.749Z,81.92
2023-09-26T04:26:33.059Z,81.35
2023-09-26T04:29:00.651Z,81.08
2023-09-26T04:31:27.657Z,81.05
2023-09-26T04:33:56.426Z,79.77
2023-09-26T04:36:23.481Z,80.60
2023-09-26T04:38:50.718Z,79.79
2023-09-26T04:41:17.748Z,80.70
2023-09-26T04:43:44.658Z,80.02
2023-09-26T04:46:13.111Z,79.51
2023-09-26T04:48:40.428Z,79.53
2023-09-26T04:51:11.324Z,79.33
2023-09-26T04:53:38.222Z,79.39
2023-09-26T04:56:05.772Z,78.47
2023-09-26T04:58:33.851Z,78.73
2023-09-26T05:01:10.982Z,79.07
2023-09-26T05:03:38.019Z,79.57
2023-09-26T05:06:05.296Z,79.71
2023-09-26T05:08:33.604Z,78.56
2023-09-26T05:11:00.499Z,78.52
2023-09-26T05:13:27.398Z,78.20
2023-09-26T05:15:54.299Z,78.39
2023-09-26T05:18:23.367Z,78.29
2023-09-26T05:20:50.346Z,78.59
2023-09-26T05:23:17.264Z,79.29
2023-09-26T05:25:45.648Z,79.70
2023-09-26T05:28:12.597Z,79.98
2023-09-26T05:30:39.779Z,79.04
2023-09-26T05:33:06.830Z,79.21
2023-09-26T05:35:33.995Z,80.27
2023-09-26T05:38:01.052Z,79.56
2023-09-26T05:40:28.049Z,79.54
2023-09-26T05:42:56.472Z,78.32
2023-09-26T05:45:23.749Z,79.47
2023-09-26T05:47:50.757Z,78.50
2023-09-26T05:50:17.871Z,78.47
2023-09-26T05:52:44.967Z,79.03
2023-09-26T05:55:12.010Z,78.98
2023-09-26T05:57:39.612Z,78.98
2023-09-26T06:00:14.662Z,79.24
2023-09-26T06:02:41.886Z,78.82
2023-09-26T06:05:09.549Z,77.45
2023-09-26T06:07:36.840Z,75.93
2023-09-26T06:10:09.728Z,75.18
2023-09-26T06:12:37.594Z,74.70
2023-09-26T06:15:07.108Z,73.71
2023-09-26T06:17:35.712Z,72.94
2023-09-26T06:20:02.907Z,73.53
2023-09-26T06:22:29.837Z,73.17
2023-09-26T06:24:59.841Z,73.18
2023-09-26T06:27:27.688Z,72.57
2023-09-26T06:29:56.926Z,69.12
2023-09-26T06:32:24.943Z,68.45
2023-09-26T06:34:58.664Z,67.57
2023-09-26T06:37:25.722Z,66.84
2023-09-26T06:39:53.042Z,65.97
2023-09-26T06:42:20.086Z,65.08
2023-09-26T06:44:49.587Z,64.63
2023-09-26T06:47:17.612Z,64.62
2023-09-26T06:49:44.849Z,63.50
2023-09-26T06:52:13.126Z,64.29
2023-09-26T06:54:40.112Z,63.81
2023-09-26T06:57:09.254Z,64.17
2023-09-26T06:59:36.378Z,64.02
2023-09-26T07:02:04.061Z,63.94
2023-09-26T07:04:31.535Z,63.66
2023-09-26T07:07:00.664Z,62.62
2023-09-26T07:09:28.996Z,63.03
2023-09-26T07:11:56.577Z,60.98
2023-09-26T07:14:23.432Z,60.77
2023-09-26T07:16:52.065Z,60.66
2023-09-26T07:19:19.132Z,60.81
2023-09-26T07:21:46.121Z,59.82
2023-09-26T07:24:13.154Z,60.62
2023-09-26T07:26:41.562Z,60.15
2023-09-26T07:29:09.634Z,59.11
2023-09-26T07:31:37.039Z,60.14
2023-09-26T07:34:04.262Z,59.17
2023-09-26T07:36:33.332Z,60.52
2023-09-26T07:39:00.692Z,59.88
2023-09-26T07:41:27.854Z,60.29
2023-09-26T07:43:56.778Z,60.54
2023-09-26T07:46:23.932Z,60.25
2023-09-26T07:48:51.310Z,59.98
2023-09-26T07:51:18.319Z,59.15
2023-09-26T07:53:45.570Z,59.68
2023-09-26T07:56:12.698Z,61.44
2023-09-26T07:58:39.650Z,60.77
2023-09-26T08:01:09.763Z,60.05
2023-09-26T08:03:40.595Z,59.91
2023-09-26T08:06:08.360Z,60.25
2023-09-26T08:08:36.058Z,60.13
2023-09-26T08:11:09.943Z,60.13
2023-09-26T08:13:37.812Z,61.14
2023-09-26T08:16:05.970Z,60.50
2023-09-26T08:18:34.536Z,60.21
2023-09-26T08:21:01.438Z,59.56
2023-09-26T08:23:29.619Z,60.41
2023-09-26T08:25:57.555Z,60.91
2023-09-26T08:28:26.992Z,60.25
2023-09-26T08:30:58.244Z,61.57
2023-09-26T08:33:25.546Z,60.18
2023-09-26T08:35:56.899Z,62.34
2023-09-26T08:38:24.008Z,60.34
2023-09-26T08:40:57.678Z,60.66
2023-09-26T08:43:25.958Z,60.48
2023-09-26T08:45:54.009Z,62.62
2023-09-26T08:48:21.673Z,61.28
2023-09-26T08:50:51.173Z,62.69
2023-09-26T08:53:19.687Z,60.56
2023-09-26T08:55:52.958Z,63.59
2023-09-26T08:58:21.937Z,60.63
2023-09-26T09:00:49.213Z,62.40
2023-09-26T09:03:16.281Z,60.84
2023-09-26T09:05:43.679Z,60.10
2023-09-26T09:08:19.916Z,59.86
2023-09-26T09:10:53.721Z,60.38
2023-09-26T09:13:29.489Z,61.39
2023-09-26T09:16:13.865Z,59.84
2023-09-26T09:18:43.853Z,60.23
2023-09-26T09:21:29.097Z,56.62
2023-09-26T09:24:00.036Z,56.17
2023-09-26T09:26:31.414Z,56.45
2023-09-26T09:29:00.440Z,57.50
2023-09-26T09:31:29.128Z,56.32
2023-09-26T09:33:57.692Z,55.56
2023-09-26T09:36:24.859Z,53.45
2023-09-26T09:38:52.053Z,53.21
2023-09-26T09:41:21.234Z,53.66
2023-09-26T09:43:48.234Z,55.20
2023-09-26T09:46:17.784Z,54.86
2023-09-26T09:48:46.359Z,53.17
2023-09-26T09:51:14.767Z,54.07
2023-09-26T09:53:55.377Z,53.86
2023-09-26T09:56:26.337Z,52.89
2023-09-26T09:59:03.342Z,52.22
2023-09-26T10:01:31.435Z,53.35
2023-09-26T10:03:59.229Z,51.83
2023-09-26T10:06:26.834Z,51.25
2023-09-26T10:08:56.137Z,50.04
2023-09-26T10:11:27.351Z,51.42
2023-09-26T10:13:54.247Z,52.92
2023-09-26T10:16:21.639Z,53.73
2023-09-26T10:18:51.785Z,51.18
2023-09-26T10:21:26.875Z,52.54
2023-09-26T10:24:27.611Z,51.81
2023-09-26T10:29:33.760Z,49.62
2023-09-26T10:32:06.229Z,50.67
2023-09-26T10:34:53.119Z,49.91
2023-09-26T10:37:22.079Z,49.47
2023-09-26T10:39:49.549Z,48.10
2023-09-26T10:44:51.812Z,50.49
2023-09-26T10:47:20.967Z,48.77
2023-09-26T10:49:47.867Z,48.38
2023-09-26T10:52:15.503Z,46.16
2023-09-26T10:54:43.219Z,47.65
2023-09-26T10:57:22.178Z,46.03
2023-09-26T10:59:50.482Z,45.63
2023-09-26T11:02:17.656Z,44.35
2023-09-26T11:04:45.272Z,46.28
2023-09-26T11:07:13.220Z,45.29
2023-09-26T11:09:42.115Z,44.86
2023-09-26T11:12:09.475Z,43.00
2023-09-26T11:14:37.790Z,45.11
2023-09-26T11:17:07.729Z,43.85
2023-09-26T11:19:35.989Z,43.48
2023-09-26T11:22:03.079Z,43.97
2023-09-26T11:24:32.726Z,44.04
2023-09-26T11:27:04.086Z,43.13
2023-09-26T11:29:34.904Z,44.66
2023-09-26T11:32:05.462Z,44.52
2023-09-26T11:34:35.532Z,44.00
2023-09-26T11:37:02.467Z,42.49
2023-09-26T11:39:29.408Z,44.39
2023-09-26T11:42:04.169Z,43.55
2023-09-26T11:44:31.975Z,42.48
2023-09-26T11:46:59.824Z,39.36
2023-09-26T11:49:29.769Z,39.83
2023-09-26T11:51:57.116Z,40.26
2023-09-26T11:54:24.007Z,40.12
2023-09-26T11:56:53.519Z,40.60
2023-09-26T11:59:20.438Z,39.73
2023-09-26T12:01:47.630Z,40.70
2023-09-26T12:04:15.243Z,40.41
2023-09-26T12:06:43.784Z,39.86
2023-09-26T12:09:20.403Z,39.60
2023-09-26T12:11:47.484Z,39.61
2023-09-26T12:14:17.936Z,40.95
2023-09-26T12:16:51.829Z,39.88
2023-09-26T12:19:19.331Z,41.42
2023-09-26T12:21:48.222Z,40.00
2023-09-26T12:24:15.257Z,39.57
2023-09-26T12:26:42.791Z,39.70
2023-09-26T12:29:10.342Z,40.73
2023-09-26T12:31:37.389Z,38.36
2023-09-26T12:34:04.657Z,37.82
2023-09-26T12:36:31.569Z,41.27
2023-09-26T12:39:00.915Z,39.83
2023-09-26T12:41:28.110Z,40.00
2023-09-26T12:43:56.302Z,39.43
2023-09-26T12:46:23.468Z,39.12
2023-09-26T12:48:50.392Z,39.05
2023-09-26T12:51:17.606Z,41.10
2023-09-26T12:53:45.583Z,39.93
2023-09-26T12:56:13.787Z,39.70
2023-09-26T12:58:40.815Z,39.11
2023-09-26T13:01:07.723Z,38.43
2023-09-26T13:03:34.649Z,39.78
2023-09-26T13:06:01.922Z,40.06
2023-09-26T13:08:28.778Z,39.86
2023-09-26T13:10:55.753Z,38.77
2023-09-26T13:13:24.835Z,38.50
2023-09-26T13:15:52.345Z,37.78
2023-09-26T13:18:19.390Z,39.69
2023-09-26T13:20:46.751Z,39.80
2023-09-26T13:23:13.860Z,38.49
2023-09-26T13:25:40.916Z,39.02
2023-09-26T13:28:09.470Z,38.64
2023-09-26T13:30:39.992Z,39.40
2023-09-26T13:33:08.140Z,40.70
2023-09-26T13:35:35.169Z,40.51
2023-09-26T13:38:04.782Z,40.75
2023-09-26T13:40:32.396Z,39.84
2023-09-26T13:42:59.243Z,40.08
2023-09-26T13:45:26.292Z,38.26
2023-09-26T13:47:54.910Z,38.46
2023-09-26T13:50:21.822Z,39.05
2023-09-26T13:52:49.020Z,39.27
2023-09-26T13:55:16.087Z,39.46
2023-09-26T13:57:42.922Z,38.06
2023-09-26T14:00:10.996Z,38.52
2023-09-26T14:02:40.750Z,38.27
2023-09-26T14:07:40.485Z,37.76
2023-09-26T14:10:08.381Z,37.34
2023-09-26T14:12:35.537Z,38.09
2023-09-26T14:15:02.441Z,37.93
2023-09-26T14:17:29.506Z,38.25
2023-09-26T14:19:56.544Z,38.48
2023-09-26T14:22:25.148Z,39.06
2023-09-26T14:24:52.698Z,38.21
2023-09-26T14:27:19.718Z,38.78
2023-09-26T14:29:46.699Z,39.69
2023-09-26T14:32:13.649Z,38.52
2023-09-26T14:34:40.738Z,40.31
2023-09-26T14:37:07.866Z,38.06
2023-09-26T14:39:36.466Z,38.82
2023-09-26T14:42:03.368Z,39.38
2023-09-26T14:44:30.589Z,38.47
2023-09-26T14:46:57.584Z,41.03
2023-09-26T14:49:24.822Z,39.88
2023-09-26T14:51:51.729Z,37.91
2023-09-26T14:54:18.627Z,38.54
2023-09-26T14:56:47.832Z,39.13
2023-09-26T14:59:14.889Z,38.39
2023-09-26T15:01:41.906Z,38.11
2023-09-26T15:04:09.057Z,38.82
2023-09-26T15:06:37.108Z,37.53
2023-09-26T15:09:04.570Z,37.07
2023-09-26T15:11:31.595Z,36.42
2023-09-26T15:13:59.959Z,36.79
2023-09-26T15:16:27.059Z,37.71
2023-09-26T15:18:53.956Z,36.70
2023-09-26T15:21:20.808Z,36.78
2023-09-26T15:23:48.783Z,35.31
2023-09-26T15:26:15.629Z,34.90
2023-09-26T15:28:42.662Z,35.35
2023-09-26T15:31:11.607Z,35.41
2023-09-26T15:33:38.688Z,35.29
2023-09-26T15:36:05.893Z,35.96
2023-09-26T15:38:32.849Z,36.63
2023-09-26T15:41:15.333Z,36.81
2023-09-26T15:43:43.534Z,36.89
2023-09-26T15:46:11.895Z,37.06
2023-09-26T15:48:38.981Z,37.38
2023-09-26T15:51:12.156Z,36.85
2023-09-26T15:53:40.569Z,36.76
2023-09-26T15:56:07.635Z,37.27
2023-09-26T15:58:34.880Z,37.26
2023-09-26T16:01:01.784Z,37.45
2023-09-26T16:03:30.218Z,37.88
2023-09-26T16:05:57.161Z,38.31
2023-09-26T16:08:24.127Z,37.81
2023-09-26T16:10:51.077Z,37.21
2023-09-26T16:13:18.063Z,37.21
2023-09-26T16:15:48.177Z,36.75
2023-09-26T16:18:16.091Z,37.33
2023-09-26T16:20:44.554Z,37.08
2023-09-26T16:23:11.787Z,37.90
2023-09-26T16:25:40.466Z,38.33
2023-09-26T16:28:07.936Z,39.10
2023-09-26T16:30:34.982Z,39.36
2023-09-26T16:33:02.393Z,40.09
2023-09-26T16:35:30.306Z,41.50
2023-09-26T16:37:58.803Z,41.70
2023-09-26T16:40:25.875Z,42.91
2023-09-26T16:42:52.834Z,43.30
2023-09-26T16:45:19.790Z,43.74
2023-09-26T16:47:47.707Z,44.21
2023-09-26T16:50:15.194Z,43.46
2023-09-26T16:52:42.491Z,43.92
2023-09-26T16:55:11.238Z,44.94
2023-09-26T16:57:38.094Z,45.06
2023-09-26T17:00:06.175Z,45.95
2023-09-26T17:02:33.329Z,46.40
2023-09-26T17:05:00.826Z,47.24
2023-09-26T17:07:28.162Z,47.65
2023-09-26T17:09:56.814Z,49.21
2023-09-26T17:12:25.203Z,49.42
2023-09-26T17:14:52.210Z,50.47
2023-09-26T17:17:19.317Z,51.64
2023-09-26T17:19:46.325Z,53.49
2023-09-26T17:22:13.414Z,54.31
2023-09-26T17:24:40.283Z,54.11
2023-09-26T17:27:07.314Z,54.48
2023-09-26T17:29:35.662Z,54.98
2023-09-26T17:32:02.713Z,56.30
2023-09-26T17:34:29.683Z,56.65
2023-09-26T17:36:56.510Z,57.44
2023-09-26T17:39:24.942Z,57.52
2023-09-26T17:41:51.911Z,57.37
2023-09-26T17:44:18.920Z,57.22
2023-09-26T17:46:48.320Z,57.36
2023-09-26T17:49:15.380Z,57.11
2023-09-26T17:51:42.261Z,58.56
2023-09-26T17:54:09.258Z,58.56
2023-09-26T17:56:36.278Z,59.21
2023-09-26T17:59:03.693Z,60.13
2023-09-26T18:01:30.899Z,61.72
2023-09-26T18:03:59.222Z,60.97
2023-09-26T18:06:28.317Z,60.86
2023-09-26T18:08:58.258Z,61.51
2023-09-26T18:11:25.334Z,61.18
2023-09-26T18:13:52.570Z,61.07
2023-09-26T18:16:19.859Z,61.48
2023-09-26T18:18:46.781Z,61.66
2023-09-26T18:21:15.258Z,61.18
2023-09-26T18:23:42.196Z,61.03
2023-09-26T18:26:09.132Z,61.10
2023-09-26T18:28:36.108Z,61.36
2023-09-26T18:31:05.853Z,61.75
2023-09-26T18:33:33.271Z,62.04
2023-09-26T18:36:05.343Z,62.27
2023-09-26T18:38:35.811Z,62.88
2023-09-26T18:41:02.842Z,62.93
2023-09-26T18:43:29.837Z,63.38
2023-09-26T18:45:58.157Z,63.87
2023-09-26T18:48:25.561Z,64.08
2023-09-26T18:50:52.833Z,64.14
2023-09-26T18:53:20.115Z,64.63
2023-09-26T18:55:48.656Z,64.67
2023-09-26T18:58:16.298Z,64.55
2023-09-26T19:00:43.355Z,65.38
2023-09-26T19:05:38.396Z,66.08
2023-09-26T19:08:06.235Z,65.86
2023-09-26T19:10:33.349Z,65.46
2023-09-26T19:13:03.892Z,65.40
2023-09-26T19:15:31.315Z,64.91
2023-09-26T19:17:58.314Z,63.67
2023-09-26T19:20:26.116Z,63.00
2023-09-26T19:22:53.161Z,63.35
2023-09-26T19:25:20.515Z,64.40
2023-09-26T19:27:47.430Z,64.98
2023-09-26T19:30:16.002Z,67.36
2023-09-26T19:32:43.012Z,67.60
2023-09-26T19:35:10.633Z,67.30
2023-09-26T19:37:37.637Z,67.28
2023-09-26T19:40:05.528Z,66.46
2023-09-26T19:42:32.594Z,66.27
2023-09-26T19:44:59.492Z,66.87
2023-09-26T19:47:27.956Z,67.60
2023-09-26T19:49:55.618Z,68.09
2023-09-26T19:52:22.650Z,67.62
2023-09-26T19:54:49.593Z,69.50
2023-09-26T19:57:16.457Z,70.89
2023-09-26T19:59:44.515Z,69.66
2023-09-26T20:02:11.793Z,68.92
2023-09-26T20:04:40.299Z,68.72
2023-09-26T20:07:07.324Z,68.60
2023-09-26T20:09:34.416Z,68.66
2023-09-26T20:12:01.291Z,68.78
2023-09-26T20:14:28.186Z,69.39
2023-09-26T20:16:55.164Z,69.85
2023-09-26T20:19:22.126Z,70.56
2023-09-26T20:21:50.332Z,71.39
2023-09-26T20:24:17.777Z,71.13
2023-09-26T20:26:44.757Z,71.10
2023-09-26T20:29:11.679Z,71.32
2023-09-26T20:31:39.064Z,71.52
2023-09-26T20:34:06.870Z,71.56
2023-09-26T20:36:34.878Z,72.29
2023-09-26T20:39:03.559Z,72.42
2023-09-26T20:41:32.950Z,72.49
2023-09-26T20:44:00.216Z,72.60
2023-09-26T20:46:27.137Z,72.79
2023-09-26T20:48:54.810Z,72.50
2023-09-26T20:51:24.999Z,71.75
2023-09-26T20:53:53.122Z,71.35
2023-09-26T20:56:22.197Z,71.25
2023-09-26T20:58:49.095Z,71.71
2023-09-26T21:01:16.310Z,72.42
2023-09-26T21:03:43.359Z,73.04
2023-09-26T21:06:11.341Z,73.30
2023-09-26T21:08:38.799Z,75.34
2023-09-26T21:11:05.676Z,74.12
2023-09-26T21:13:34.096Z,74.78
2023-09-26T21:16:13.907Z,73.02
2023-09-26T21:18:42.244Z,72.52
2023-09-26T21:21:09.386Z,72.87
2023-09-26T21:23:36.319Z,75.26
2023-09-26T21:26:03.672Z,75.47
2023-09-26T21:28:33.961Z,74.01
2023-09-26T21:31:00.866Z,73.15
2023-09-26T21:33:27.777Z,73.65
2023-09-26T21:35:55.460Z,73.40
2023-09-26T21:38:23.136Z,74.85
2023-09-26T21:40:50.772Z,75.29
2023-09-26T21:43:17.968Z,73.56
2023-09-26T21:45:46.381Z,73.72
2023-09-26T21:48:13.521Z,73.70
2023-09-26T21:50:40.517Z,73.61
2023-09-26T21:53:07.463Z,74.72
2023-09-26T21:55:36.311Z,76.55
2023-09-26T21:58:04.283Z,75.62
2023-09-26T22:00:31.446Z,74.89
2023-09-26T22:03:01.708Z,75.38
2023-09-26T22:05:30.346Z,76.22
2023-09-26T22:07:58.616Z,76.65
2023-09-26T22:10:26.801Z,76.35
2023-09-26T22:12:54.062Z,77.08
2023-09-26T22:15:21.625Z,77.49
2023-09-26T22:17:48.636Z,79.16
2023-09-26T22:20:18.426Z,80.16
2023-09-26T22:22:46.347Z,78.23
2023-09-26T22:25:14.569Z,75.80
2023-09-26T22:27:42.294Z,76.29
2023-09-26T22:30:10.905Z,76.07
2023-09-26T22:32:38.454Z,77.99
2023-09-26T22:35:06.739Z,76.95
2023-09-26T22:37:35.973Z,77.57
2023-09-26T22:40:03.549Z,77.12
2023-09-26T22:42:30.549Z,76.42
2023-09-26T22:44:57.658Z,75.73
2023-09-26T22:47:25.305Z,76.23
2023-09-26T22:49:52.471Z,76.98
2023-09-26T22:52:20.198Z,80.85
2023-09-26T22:54:48.658Z,77.58
2023-09-26T22:57:15.706Z,77.63
2023-09-26T22:59:42.931Z,77.37
2023-09-26T23:02:09.954Z,77.81
2023-09-26T23:04:37.217Z,77.26
2023-09-26T23:07:04.384Z,78.93
2023-09-26T23:09:31.262Z,78.38
2023-09-26T23:11:59.556Z,79.04
2023-09-26T23:14:26.621Z,78.62
2023-09-26T23:16:54.031Z,78.66
2023-09-26T23:19:20.958Z,78.85
2023-09-26T23:21:47.908Z,82.58
2023-09-26T23:24:19.018Z,79.65
2023-09-26T23:26:46.219Z,78.43
2023-09-26T23:29:14.665Z,78.15
2023-09-26T23:31:42.221Z,77.64
2023-09-26T23:34:10.171Z,78.63
2023-09-26T23:36:37.106Z,81.59
2023-09-26T23:39:04.473Z,82.22
2023-09-26T23:41:31.400Z,78.95
2023-09-26T23:43:59.662Z,79.08
2023-09-26T23:46:29.354Z,81.71
2023-09-26T23:48:56.775Z,83.54
2023-09-26T23:51:23.672Z,80.71
2023-09-26T23:53:50.564Z,80.91
2023-09-26T23:56:17.643Z,79.12
2023-09-26T23:58:45.101Z,78.41
